Time;durP1;ratioP1;P1;durP2;ratioP2;P2;SDS_P1;SDS_P2;PMS_P1;PMS_P2;Temp;Humidity;BMP_temperature;BMP_pressure;BME280_temperature;BME280_humidity;BME280_pressure;Samples;Min_cycle;Max_cycle;Signal;HPM_P1;HPM_P2
2023/09/28 00:01:21;;;;;;;14.30;10.20;;;;;;;13.39;79.74;100847.78;130126;1262;108433;-76
2023/09/28 00:04:27;;;;;;;13.10;10.10;;;;;;;13.33;80.03;100844.55;130166;1264;106501;-76
2023/09/28 00:07:33;;;;;;;12.30;10.00;;;;;;;13.30;79.82;100843.38;130161;1261;108176;-76
2023/09/28 00:10:39;;;;;;;14.10;10.60;;;;;;;13.27;79.58;100841.22;130159;1260;107303;-75
2023/09/28 00:13:44;;;;;;;13.90;10.70;;;;;;;13.24;79.56;100840.30;130142;1277;106561;-75
2023/09/28 00:16:50;;;;;;;12.90;10.70;;;;;;;13.21;79.36;100836.66;130102;1275;108546;-75
2023/09/28 00:19:56;;;;;;;12.90;10.50;;;;;;;13.18;79.15;100835.55;130157;1276;107223;-77
2023/09/28 00:23:02;;;;;;;14.50;11.10;;;;;;;13.11;79.11;100832.36;130381;1261;106607;-76
2023/09/28 00:26:08;;;;;;;13.70;11.20;;;;;;;13.03;79.17;100830.95;130138;1260;108760;-76
2023/09/28 00:29:14;;;;;;;16.30;11.50;;;;;;;12.97;79.15;100828.20;130102;1264;107667;-76
2023/09/28 00:32:20;;;;;;;13.70;11.00;;;;;;;12.90;78.99;100827.39;130177;1261;108297;-76
2023/09/28 00:35:26;;;;;;;13.70;10.20;;;;;;;12.83;79.14;100828.38;130714;1257;107807;-76
2023/09/28 00:38:32;;;;;;;12.20;10.20;;;;;;;12.78;79.09;100823.98;130844;1257;107350;-76
2023/09/28 00:41:38;;;;;;;13.50;10.20;;;;;;;12.80;79.15;100827.27;130730;1261;107336;-76
2023/09/28 00:44:44;;;;;;;13.40;10.50;;;;;;;12.81;79.22;100827.09;130677;1254;107659;-76
2023/09/28 00:47:51;;;;;;;13.80;11.00;;;;;;;12.81;79.29;100829.05;130651;1257;106443;-74
2023/09/28 00:50:59;;;;;;;14.90;11.10;;;;;;;12.79;79.19;100826.80;130772;1257;107743;-75
2023/09/28 00:54:07;;;;;;;15.20;11.80;;;;;;;12.76;79.22;100824.20;130669;1259;106976;-75
2023/09/28 00:57:13;;;;;;;16.60;11.60;;;;;;;12.73;79.16;100820.95;130738;1254;109249;-77
2023/09/28 01:00:23;;;;;;;13.80;11.20;;;;;;;12.68;79.52;100823.21;130691;1253;107149;-77
2023/09/28 01:03:30;;;;;;;13.10;10.50;;;;;;;12.63;79.49;100819.42;130799;1257;107131;-77
2023/09/28 01:06:37;;;;;;;12.10;10.10;;;;;;;12.61;79.54;100814.48;130699;1253;106677;-77
2023/09/28 01:09:43;;;;;;;14.00;10.30;;;;;;;12.61;79.52;100817.36;130724;1254;106466;-76
2023/09/28 01:12:49;;;;;;;14.20;10.90;;;;;;;12.60;79.53;100816.21;130753;1256;106512;-77
2023/09/28 01:15:55;;;;;;;15.70;10.90;;;;;;;12.61;79.49;100812.73;130657;1258;107029;-77
2023/09/28 01:19:00;;;;;;;13.80;10.70;;;;;;;12.59;79.39;100811.79;130736;1255;106894;-76
2023/09/28 01:22:14;;;;;;;13.90;11.60;;;;;;;12.56;79.13;100810.98;130704;1257;107884;-76
2023/09/28 01:25:20;;;;;;;14.70;10.50;;;;;;;12.51;79.06;100808.27;130917;1252;107646;-77
2023/09/28 01:28:27;;;;;;;13.00;11.00;;;;;;;12.46;79.04;100812.02;130754;1253;108558;-76
2023/09/28 01:31:33;;;;;;;13.20;10.00;;;;;;;12.39;79.02;100810.73;130794;1254;106379;-75
2023/09/28 01:34:39;;;;;;;11.50;9.60;;;;;;;12.35;79.09;100807.77;130661;1257;105562;-75
2023/09/28 01:37:55;;;;;;;15.00;10.60;;;;;;;12.32;78.96;100803.25;130774;1257;109321;-74
2023/09/28 01:41:02;;;;;;;12.10;9.50;;;;;;;12.31;78.83;100801.58;130724;1256;106997;-75
2023/09/28 01:44:07;;;;;;;12.30;10.50;;;;;;;12.31;78.94;100803.84;130792;1258;107421;-75
2023/09/28 01:47:13;;;;;;;14.10;11.00;;;;;;;12.30;79.06;100797.85;130821;1253;108612;-77
2023/09/28 01:50:19;;;;;;;13.40;10.90;;;;;;;12.29;78.99;100797.29;130769;1255;108690;-77
2023/09/28 01:53:25;;;;;;;15.30;11.00;;;;;;;12.24;79.10;100796.84;130780;1258;106903;-77
2023/09/28 01:56:30;;;;;;;14.00;11.00;;;;;;;12.19;79.06;100796.65;130757;1254;106663;-77
2023/09/28 01:59:36;;;;;;;12.60;10.50;;;;;;;12.15;79.34;100795.25;130748;1257;108486;-77
2023/09/28 02:02:42;;;;;;;11.30;9.00;;;;;;;12.12;79.13;100789.27;130819;1257;106992;-77
2023/09/28 02:05:48;;;;;;;14.30;10.10;;;;;;;12.10;79.49;100788.38;130744;1257;107660;-77
2023/09/28 02:08:56;;;;;;;13.60;10.40;;;;;;;12.11;79.29;100787.64;130805;1254;107205;-77
2023/09/28 02:12:03;;;;;;;12.60;10.10;;;;;;;12.13;79.19;100787.98;130825;1254;105641;-77
2023/09/28 02:15:11;;;;;;;13.10;10.30;;;;;;;12.13;79.19;100782.27;130703;1253;107761;-77
2023/09/28 02:18:17;;;;;;;13.70;10.90;;;;;;;12.11;78.93;100786.23;130690;1257;107714;-77
2023/09/28 02:21:22;;;;;;;13.20;10.50;;;;;;;12.08;78.91;100785.46;130692;1255;108617;-77
2023/09/28 02:24:28;;;;;;;12.50;10.30;;;;;;;12.03;78.75;100786.11;130753;1269;106687;-77
2023/09/28 02:27:34;;;;;;;12.90;10.80;;;;;;;11.97;78.84;100786.11;130978;1268;108044;-78
2023/09/28 02:30:39;;;;;;;12.70;10.90;;;;;;;11.92;78.57;100787.35;130810;1253;109377;-78
2023/09/28 02:33:47;;;;;;;12.90;10.00;;;;;;;11.87;78.76;100785.96;131217;1257;106588;-76
2023/09/28 02:36:54;;;;;;;13.60;9.60;;;;;;;11.84;78.72;100786.36;130803;1258;106655;-74
2023/09/28 02:40:00;;;;;;;12.40;9.60;;;;;;;11.81;78.71;100787.13;131063;1256;108550;-75
2023/09/28 02:43:05;;;;;;;12.10;10.00;;;;;;;11.82;78.82;100787.36;131005;1255;108155;-77
2023/09/28 02:46:13;;;;;;;12.10;9.60;;;;;;;11.82;78.61;100788.62;131009;1256;106637;-77
2023/09/28 02:49:20;;;;;;;12.30;9.70;;;;;;;11.81;78.64;100791.39;130724;1257;108692;-76
2023/09/28 02:52:26;;;;;;;12.10;10.30;;;;;;;11.80;78.78;100792.05;130718;1257;108920;-75
2023/09/28 02:55:32;;;;;;;13.90;10.70;;;;;;;11.77;78.83;100788.66;130738;1254;108218;-75
2023/09/28 02:58:38;;;;;;;11.80;10.10;;;;;;;11.74;78.79;100790.41;130789;1257;106267;-75
2023/09/28 03:01:43;;;;;;;12.00;10.30;;;;;;;11.69;78.78;100788.59;130672;1258;107125;-76
2023/09/28 03:04:49;;;;;;;12.70;9.40;;;;;;;11.64;79.11;100785.85;130725;1258;106556;-75
2023/09/28 03:07:54;;;;;;;12.50;9.10;;;;;;;11.61;79.07;100782.79;130762;1256;105816;-75
2023/09/28 03:11:00;;;;;;;14.50;9.40;;;;;;;11.61;79.01;100779.93;130761;1255;106484;-75
2023/09/28 03:14:06;;;;;;;12.80;10.20;;;;;;;11.60;79.40;100780.36;130769;1253;107872;-75
2023/09/28 03:17:11;;;;;;;13.00;9.90;;;;;;;11.60;79.05;100781.09;130787;1253;107014;-75
2023/09/28 03:20:17;;;;;;;11.70;10.00;;;;;;;11.58;78.79;100783.40;130774;1253;106666;-75
2023/09/28 03:23:23;;;;;;;16.10;10.80;;;;;;;11.56;78.66;100786.96;130752;1253;106466;-75
2023/09/28 03:26:31;;;;;;;12.10;10.30;;;;;;;11.52;78.68;100787.16;130680;1258;107027;-76
2023/09/28 03:29:37;;;;;;;13.70;10.90;;;;;;;11.47;78.85;100786.77;130838;1254;107009;-75
2023/09/28 03:32:43;;;;;;;17.40;10.40;;;;;;;11.43;78.59;100791.61;130697;1257;106397;-75
2023/09/28 03:35:48;;;;;;;15.30;10.20;;;;;;;11.36;78.69;100787.95;130816;1254;107705;-75
2023/09/28 03:38:54;;;;;;;10.90;8.70;;;;;;;11.30;79.02;100787.64;130785;1257;107614;-75
2023/09/28 03:42:00;;;;;;;13.00;10.00;;;;;;;11.30;78.81;100788.94;130744;1258;107036;-75
2023/09/28 03:45:08;;;;;;;13.40;9.80;;;;;;;11.27;78.52;100788.63;130694;1254;107840;-75
2023/09/28 03:48:14;;;;;;;12.50;9.80;;;;;;;11.26;78.50;100785.34;130827;1253;108431;-76
2023/09/28 03:51:19;;;;;;;12.90;9.80;;;;;;;11.27;78.23;100787.82;130748;1253;106718;-75
2023/09/28 03:54:25;;;;;;;16.30;10.40;;;;;;;11.25;78.27;100793.70;130718;1256;107774;-75
2023/09/28 03:57:31;;;;;;;15.20;10.00;;;;;;;11.20;78.05;100794.49;130808;1258;107731;-76
2023/09/28 04:00:37;;;;;;;15.20;10.40;;;;;;;11.16;78.12;100793.77;130805;1253;108336;-75
2023/09/28 04:03:43;;;;;;;11.90;10.00;;;;;;;11.13;78.33;100790.31;130825;1257;107816;-75
2023/09/28 04:06:49;;;;;;;12.40;10.00;;;;;;;11.11;78.04;100787.52;130697;1268;107557;-75
2023/09/28 04:09:55;;;;;;;13.10;10.30;;;;;;;11.07;78.42;100779.70;130799;1258;107031;-75
2023/09/28 04:13:01;;;;;;;13.50;8.80;;;;;;;11.03;78.36;100777.54;130698;1257;107548;-75
2023/09/28 04:16:06;;;;;;;13.50;9.40;;;;;;;11.00;78.47;100777.46;130749;1252;107188;-75
2023/09/28 04:19:12;;;;;;;13.10;10.00;;;;;;;11.00;78.28;100774.02;130723;1256;106360;-75
2023/09/28 04:22:18;;;;;;;13.80;10.10;;;;;;;11.02;78.46;100770.52;130807;1254;106644;-76
2023/09/28 04:25:26;;;;;;;13.60;10.10;;;;;;;11.03;78.61;100767.65;130795;1252;107658;-74
2023/09/28 04:28:32;;;;;;;12.80;10.90;;;;;;;10.99;78.75;100759.50;130829;1257;107708;-75
2023/09/28 04:31:39;;;;;;;15.70;10.50;;;;;;;10.95;78.63;100761.17;130774;1253;107292;-75
2023/09/28 04:34:45;;;;;;;14.20;10.60;;;;;;;10.92;78.56;100760.75;130821;1255;108231;-75
2023/09/28 04:37:51;;;;;;;14.50;10.50;;;;;;;10.89;78.30;100761.23;130754;1253;106453;-75
2023/09/28 04:40:56;;;;;;;12.90;9.70;;;;;;;10.84;78.31;100761.55;130747;1258;107348;-75
2023/09/28 04:44:02;;;;;;;12.40;8.70;;;;;;;10.81;78.50;100761.98;130762;1259;107696;-75
2023/09/28 04:47:07;;;;;;;12.80;9.30;;;;;;;10.78;78.41;100759.17;130753;1254;108819;-75
2023/09/28 04:50:13;;;;;;;13.80;9.90;;;;;;;10.80;78.58;100761.19;130733;1257;106315;-75
2023/09/28 04:53:18;;;;;;;16.90;10.20;;;;;;;10.81;78.50;100756.91;130770;1257;107178;-75
2023/09/28 04:56:24;;;;;;;14.30;9.90;;;;;;;10.82;78.49;100760.27;130807;1257;108412;-75
2023/09/28 04:59:30;;;;;;;16.00;11.00;;;;;;;10.82;78.02;100762.42;130851;1257;107779;-78
2023/09/28 05:02:36;;;;;;;14.30;10.40;;;;;;;10.79;78.26;100763.00;134152;1252;106869;-75
2023/09/28 05:05:41;;;;;;;13.50;10.80;;;;;;;10.80;78.27;100761.83;135088;1253;107051;-75
2023/09/28 05:08:47;;;;;;;14.30;10.50;;;;;;;10.83;78.30;100770.02;135096;1252;105800;-76
2023/09/28 05:11:53;;;;;;;11.80;9.00;;;;;;;10.83;78.47;100770.75;134996;1254;106630;-75
2023/09/28 05:14:59;;;;;;;12.90;8.20;;;;;;;10.85;78.22;100774.83;134676;1252;108635;-76
2023/09/28 05:18:05;;;;;;;17.80;10.40;;;;;;;10.90;78.54;100775.06;130668;1256;106899;-76
2023/09/28 05:21:12;;;;;;;15.70;10.20;;;;;;;10.94;78.02;100775.54;130992;1253;106444;-76
2023/09/28 05:24:18;;;;;;;14.40;10.70;;;;;;;11.00;78.17;100774.45;130757;1256;106893;-76
2023/09/28 05:27:23;;;;;;;14.30;10.30;;;;;;;11.07;78.25;100777.73;130668;1258;107714;-75
2023/09/28 05:30:29;;;;;;;16.70;11.10;;;;;;;11.11;78.63;100778.77;130690;1258;106908;-76
2023/09/28 05:33:35;;;;;;;16.00;10.80;;;;;;;11.15;78.87;100773.42;130702;1257;108680;-77
2023/09/28 05:36:41;;;;;;;17.30;11.30;;;;;;;11.22;79.04;100774.17;130723;1259;106583;-76
2023/09/28 05:39:46;;;;;;;14.50;10.90;;;;;;;11.29;79.52;100774.27;130803;1253;107049;-77
2023/09/28 05:42:52;;;;;;;16.10;10.60;;;;;;;11.38;80.01;100776.92;130809;1252;106868;-77
2023/09/28 05:45:58;;;;;;;15.80;11.40;;;;;;;11.49;80.23;100776.76;130736;1257;106702;-77
2023/09/28 05:49:04;;;;;;;17.40;12.00;;;;;;;11.63;80.74;100772.95;130683;1254;108564;-76
2023/09/28 05:52:10;;;;;;;20.30;11.80;;;;;;;11.78;80.75;100772.07;130745;1256;106649;-76
2023/09/28 05:55:16;;;;;;;17.70;12.80;;;;;;;11.89;81.11;100771.48;130897;1257;107201;-75
2023/09/28 05:58:22;;;;;;;18.00;12.30;;;;;;;12.01;81.63;100773.20;130807;1253;106900;-74
2023/09/28 06:01:30;;;;;;;15.30;11.20;;;;;;;12.14;81.99;100768.80;130788;1253;107529;-75
2023/09/28 06:04:36;;;;;;;15.60;11.40;;;;;;;12.27;82.24;100763.56;130743;1257;106400;-74
2023/09/28 06:07:41;;;;;;;21.40;14.00;;;;;;;12.44;82.82;100765.30;130722;1257;107734;-75
2023/09/28 06:10:48;;;;;;;17.90;13.00;;;;;;;12.59;82.88;100764.64;130718;1257;107145;-76
2023/09/28 06:13:53;;;;;;;18.00;13.80;;;;;;;12.73;83.33;100761.87;130684;1258;107835;-76
2023/09/28 06:17:00;;;;;;;17.90;12.80;;;;;;;12.85;83.49;100765.59;130737;1268;107610;-74
2023/09/28 06:20:08;;;;;;;21.40;12.40;;;;;;;13.00;83.62;100764.52;130800;1253;107081;-77
2023/09/28 06:23:15;;;;;;;21.90;13.40;;;;;;;13.14;83.56;100763.59;130833;1257;107151;-76
2023/09/28 06:26:20;;;;;;;18.30;13.40;;;;;;;13.29;83.69;100769.38;130739;1258;107162;-76
2023/09/28 06:29:26;;;;;;;19.50;13.20;;;;;;;13.42;84.20;100773.63;130693;1253;108339;-76
2023/09/28 06:32:32;;;;;;;19.30;13.00;;;;;;;13.54;84.11;100774.91;130722;1259;107983;-78
2023/09/28 06:35:38;;;;;;;18.00;12.90;;;;;;;13.66;84.44;100773.94;130646;1258;107642;-78
2023/09/28 06:38:43;;;;;;;16.60;12.80;;;;;;;13.81;84.22;100772.96;130922;1255;106470;-77
2023/09/28 06:41:49;;;;;;;22.10;13.20;;;;;;;13.94;84.40;100771.23;130582;1258;107344;-77
2023/09/28 06:44:57;;;;;;;18.00;13.30;;;;;;;14.07;84.70;100772.17;130738;1254;106776;-76
2023/09/28 06:48:03;;;;;;;18.50;12.50;;;;;;;14.18;84.70;100768.48;130735;1256;107827;-79
2023/09/28 06:51:11;;;;;;;18.70;12.40;;;;;;;14.29;85.03;100773.58;130685;1259;108374;-78
2023/09/28 06:54:16;;;;;;;19.50;12.70;;;;;;;14.43;84.96;100772.09;130775;1258;107678;-76
2023/09/28 06:57:23;;;;;;;22.70;16.30;;;;;;;14.57;85.17;100774.64;130848;1254;106247;-77
2023/09/28 07:00:29;;;;;;;19.30;12.60;;;;;;;14.73;85.16;100776.58;130722;1258;107745;-76
2023/09/28 07:03:34;;;;;;;17.80;13.30;;;;;;;14.86;84.98;100775.53;130821;1256;107489;-76
2023/09/28 07:06:40;;;;;;;16.20;11.40;;;;;;;14.97;85.03;100774.70;130882;1252;108764;-75
2023/09/28 07:09:46;;;;;;;18.70;11.10;;;;;;;15.08;85.03;100774.55;130777;1253;108265;-75
2023/09/28 07:12:51;;;;;;;16.10;11.20;;;;;;;15.20;85.18;100773.40;130944;1253;107283;-76
2023/09/28 07:15:58;;;;;;;16.70;11.70;;;;;;;15.34;85.13;100770.40;130890;1253;107037;-75
2023/09/28 07:19:05;;;;;;;16.90;11.40;;;;;;;15.49;84.90;100769.09;130897;1256;108447;-76
2023/09/28 07:22:11;;;;;;;14.80;11.30;;;;;;;15.62;84.89;100765.82;130900;1256;107700;-75
2023/09/28 07:25:17;;;;;;;18.50;10.70;;;;;;;15.72;84.78;100766.87;130991;1258;108557;-76
2023/09/28 07:28:22;;;;;;;14.90;10.50;;;;;;;15.81;84.56;100769.48;130859;1255;106444;-76
2023/09/28 07:31:28;;;;;;;15.80;10.50;;;;;;;15.93;84.80;100765.76;131094;1253;107102;-75
2023/09/28 07:34:34;;;;;;;15.20;10.60;;;;;;;16.06;84.63;100762.76;131096;1253;107727;-75
2023/09/28 07:37:40;;;;;;;16.50;11.20;;;;;;;16.19;84.64;100763.63;131126;1253;107870;-76
2023/09/28 07:40:46;;;;;;;16.70;10.30;;;;;;;16.32;84.51;100764.89;131121;1254;107700;-77
2023/09/28 07:43:51;;;;;;;17.50;11.30;;;;;;;16.41;84.54;100764.30;131020;1254;106857;-77
2023/09/28 07:46:57;;;;;;;14.40;10.00;;;;;;;16.50;84.31;100763.87;131032;1255;107701;-76
2023/09/28 07:50:03;;;;;;;12.80;9.20;;;;;;;16.59;84.21;100764.23;131031;1254;106301;-76
2023/09/28 07:53:09;;;;;;;14.00;10.00;;;;;;;16.70;84.10;100756.67;131117;1255;107703;-76
2023/09/28 07:56:15;;;;;;;13.70;9.70;;;;;;;16.82;84.00;100757.91;131017;1253;107752;-76
2023/09/28 07:59:20;;;;;;;17.00;10.10;;;;;;;16.97;83.84;100757.86;131150;1254;107704;-76
2023/09/28 08:02:26;;;;;;;14.70;10.30;;;;;;;17.10;83.72;100759.92;131087;1255;107099;-77
2023/09/28 08:05:32;;;;;;;14.90;9.70;;;;;;;17.19;83.76;100757.30;131013;1250;106840;-76
2023/09/28 08:08:39;;;;;;;12.70;9.30;;;;;;;17.30;83.84;100754.05;130992;1256;107793;-76
2023/09/28 08:11:44;;;;;;;14.50;9.50;;;;;;;17.40;83.66;100748.92;130989;1254;107896;-76
2023/09/28 08:14:50;;;;;;;14.20;9.50;;;;;;;17.50;83.54;100747.33;131062;1255;107201;-76
2023/09/28 08:17:57;;;;;;;15.60;10.50;;;;;;;17.63;83.28;100748.38;130977;1255;107025;-76
2023/09/28 08:21:03;;;;;;;13.90;9.60;;;;;;;17.77;83.36;100748.48;131027;1253;106990;-75
2023/09/28 08:24:11;;;;;;;13.90;9.20;;;;;;;17.90;83.10;100748.21;130944;1255;106888;-78
2023/09/28 08:27:16;;;;;;;12.10;9.10;;;;;;;18.02;82.86;100750.60;131247;1250;107749;-79
2023/09/28 08:30:35;;;;;;;12.70;9.50;;;;;;;18.10;82.76;100751.14;131232;1249;107629;-77
2023/09/28 08:33:43;;;;;;;12.10;8.50;;;;;;;18.20;82.58;100747.60;131199;1253;108377;-77
2023/09/28 08:36:49;;;;;;;12.50;8.50;;;;;;;18.31;82.56;100750.75;130967;1255;107059;-77
2023/09/28 08:39:57;;;;;;;11.50;8.80;;;;;;;18.43;82.09;100745.80;131022;1265;107835;-77
2023/09/28 08:43:10;;;;;;;11.80;8.90;;;;;;;18.56;81.82;100745.95;131122;1255;107826;-77
2023/09/28 08:46:18;;;;;;;13.50;9.00;;;;;;;18.68;81.67;100744.58;131050;1255;108460;-77
2023/09/28 08:49:27;;;;;;;12.80;8.60;;;;;;;18.77;81.78;100739.67;130969;1255;106731;-77
2023/09/28 08:52:33;;;;;;;14.80;9.00;;;;;;;18.86;81.53;100741.55;131152;1255;107250;-77
2023/09/28 08:55:39;;;;;;;14.30;9.10;;;;;;;18.94;81.70;100738.46;131085;1254;106287;-76
2023/09/28 08:58:46;;;;;;;10.40;7.50;;;;;;;19.01;81.22;100736.31;131219;1253;107874;-77
2023/09/28 09:01:52;;;;;;;10.80;8.00;;;;;;;19.09;81.12;100731.30;131060;1255;107673;-77
2023/09/28 09:04:58;;;;;;;11.50;8.10;;;;;;;19.18;80.99;100730.85;130982;1254;107607;-76
2023/09/28 09:08:05;;;;;;;14.30;8.90;;;;;;;19.30;80.75;100726.64;131058;1250;106684;-77
2023/09/28 09:11:16;;;;;;;10.70;8.70;;;;;;;19.40;80.44;100727.02;131142;1254;107082;-77
2023/09/28 09:14:27;;;;;;;14.10;8.60;;;;;;;19.47;80.11;100725.77;131196;1254;107176;-77
2023/09/28 09:17:37;;;;;;;13.00;8.80;;;;;;;19.53;80.16;100722.60;131003;1254;107061;-77
2023/09/28 09:20:43;;;;;;;12.40;8.60;;;;;;;19.60;80.08;100719.68;131164;1250;107384;-76
2023/09/28 09:24:03;;;;;;;12.30;8.50;;;;;;;19.67;79.68;100718.21;134742;1249;107900;-77
2023/09/28 09:27:12;;;;;;;11.70;7.50;;;;;;;19.73;79.56;100720.96;133297;1251;106977;-76
2023/09/28 09:30:20;;;;;;;9.80;8.20;;;;;;;19.80;79.27;100724.25;131252;1249;107683;-76
2023/09/28 09:33:26;;;;;;;12.50;8.10;;;;;;;19.90;79.42;100723.73;131698;1249;107930;-76
2023/09/28 09:36:32;;;;;;;11.70;8.30;;;;;;;19.99;79.27;100720.36;131052;1255;107030;-76
2023/09/28 09:39:38;;;;;;;10.70;8.00;;;;;;;20.08;78.87;100720.98;131109;1255;106561;-76
2023/09/28 09:42:44;;;;;;;16.90;9.30;;;;;;;20.18;78.78;100720.77;131102;1254;107178;-76
2023/09/28 09:45:49;;;;;;;12.30;8.70;;;;;;;20.27;78.78;100721.52;131017;1255;107736;-76
2023/09/28 09:48:56;;;;;;;15.10;8.70;;;;;;;20.35;78.62;100718.44;130969;1249;106883;-76
2023/09/28 09:52:03;;;;;;;11.50;7.90;;;;;;;20.42;78.37;100714.69;130991;1264;106535;-77
2023/09/28 09:55:09;;;;;;;11.20;7.60;;;;;;;20.50;78.26;100713.54;130981;1254;107006;-76
2023/09/28 09:58:18;;;;;;;12.70;8.00;;;;;;;20.60;77.82;100705.04;130939;1255;106790;-76
2023/09/28 10:01:25;;;;;;;14.50;7.90;;;;;;;20.73;77.68;100709.66;131039;1254;107487;-76
2023/09/28 10:04:32;;;;;;;14.10;8.70;;;;;;;20.83;77.34;100709.36;131021;1264;107396;-76
2023/09/28 10:07:40;;;;;;;14.10;7.80;;;;;;;20.92;76.95;100711.52;131098;1254;106552;-77
2023/09/28 10:10:47;;;;;;;12.20;8.20;;;;;;;21.02;76.69;100708.17;131189;1256;106873;-78
2023/09/28 10:13:53;;;;;;;11.10;7.70;;;;;;;21.10;76.49;100705.02;131345;1250;107956;-76
2023/09/28 10:16:59;;;;;;;10.20;8.00;;;;;;;21.16;76.34;100707.70;131130;1253;107662;-77
2023/09/28 10:20:07;;;;;;;12.80;7.50;;;;;;;21.22;75.94;100707.30;131019;1254;108134;-76
2023/09/28 10:23:23;;;;;;;10.30;7.30;;;;;;;21.26;75.46;100702.69;131139;1255;107943;-76
2023/09/28 10:26:31;;;;;;;8.20;7.00;;;;;;;21.30;75.05;100699.39;131005;1254;107660;-78
2023/09/28 10:29:37;;;;;;;7.60;6.70;;;;;;;21.35;74.88;100701.28;131123;1255;108416;-77
2023/09/28 10:32:43;;;;;;;14.10;6.90;;;;;;;21.41;74.73;100702.11;131032;1250;106487;-76
2023/09/28 10:35:49;;;;;;;9.10;6.90;;;;;;;21.45;74.53;100703.59;130983;1255;107646;-76
2023/09/28 10:39:14;;;;;;;9.40;6.80;;;;;;;21.47;74.27;100704.08;131049;1254;107210;-76
2023/09/28 10:42:20;;;;;;;11.50;7.50;;;;;;;21.55;73.52;100702.52;131107;1249;107276;-76
2023/09/28 10:45:36;;;;;;;10.40;7.10;;;;;;;21.61;73.11;100706.04;131122;1256;107347;-76
2023/09/28 10:48:42;;;;;;;9.60;7.20;;;;;;;21.67;73.17;100705.40;131031;1253;108663;-77
2023/09/28 10:51:48;;;;;;;7.70;6.80;;;;;;;21.72;72.86;100705.42;130996;1263;107662;-77
2023/09/28 10:54:54;;;;;;;9.10;6.40;;;;;;;21.76;72.68;100705.36;131107;1253;108600;-76
2023/09/28 10:58:06;;;;;;;9.00;6.70;;;;;;;21.81;72.40;100701.66;131030;1255;107597;-77
2023/09/28 11:01:12;;;;;;;8.40;7.20;;;;;;;21.87;72.22;100702.92;131062;1254;106995;-76
2023/09/28 11:04:18;;;;;;;9.90;7.10;;;;;;;21.92;71.76;100698.38;131050;1255;107148;-77
2023/09/28 11:07:25;;;;;;;8.70;6.70;;;;;;;21.95;71.55;100695.98;131067;1255;108297;-77
2023/09/28 11:10:31;;;;;;;11.40;7.30;;;;;;;21.97;71.17;100694.54;130971;1255;106682;-77
2023/09/28 11:13:37;;;;;;;11.30;6.90;;;;;;;22.03;70.97;100693.77;131183;1251;106788;-76
2023/09/28 11:16:43;;;;;;;11.10;6.90;;;;;;;22.09;71.32;100687.29;130943;1261;266486;-77
2023/09/28 11:19:49;;;;;;;10.20;7.40;;;;;;;22.12;70.90;100685.21;130984;1253;107774;-77
2023/09/28 11:22:57;;;;;;;12.40;7.30;;;;;;;22.15;70.82;100680.64;131067;1254;107446;-75
2023/09/28 11:26:05;;;;;;;11.60;7.40;;;;;;;22.21;70.69;100683.90;131121;1252;108465;-78
2023/09/28 11:29:11;;;;;;;9.80;7.10;;;;;;;22.26;70.28;100681.85;131031;1255;107587;-76
2023/09/28 11:32:17;;;;;;;9.60;6.70;;;;;;;22.33;69.05;100680.59;131000;1255;106743;-77
2023/09/28 11:35:31;;;;;;;8.70;6.90;;;;;;;22.42;69.72;100678.19;131080;1255;108757;-78
2023/09/28 11:38:37;;;;;;;10.10;6.90;;;;;;;22.45;69.61;100676.98;131231;1252;107806;-76
2023/09/28 11:45:18;;;;;;;9.00;6.70;;;;;;;22.57;68.64;100673.79;126898;1293;635985;-78
2023/09/28 11:48:25;;;;;;;9.50;6.90;;;;;;;22.58;68.31;100674.25;130077;1268;107166;-79
2023/09/28 13:51:43;;;;;;;13.40;8.90;;;;;;;23.33;60.44;100617.46;128281;1285;648395;-78
2023/09/28 13:54:49;;;;;;;8.90;6.80;;;;;;;23.40;60.07;100617.67;130072;1267;144406;-79
2023/09/28 13:57:55;;;;;;;8.70;6.70;;;;;;;23.39;60.05;100616.23;130306;1261;107002;-79
2023/09/28 14:01:02;;;;;;;12.20;6.80;;;;;;;23.37;59.89;100610.22;130281;1270;106964;-77
2023/09/28 14:04:10;;;;;;;11.20;6.90;;;;;;;23.33;59.59;100606.00;130196;1262;108450;-77
2023/09/28 14:07:16;;;;;;;8.60;6.60;;;;;;;23.29;59.43;100605.34;130736;1260;107730;-79
2023/09/28 14:10:21;;;;;;;7.90;6.20;;;;;;;23.25;59.45;100604.84;130300;1264;106728;-78
2023/09/28 14:13:27;;;;;;;8.90;5.70;;;;;;;23.20;59.11;100602.68;130295;1261;106335;-79
2023/09/28 14:16:36;;;;;;;7.60;5.70;;;;;;;23.18;59.06;100603.17;130172;1264;108665;-78
2023/09/28 14:19:43;;;;;;;7.30;5.70;;;;;;;23.16;59.19;100603.40;130215;1260;106830;-78
2023/09/28 14:22:49;;;;;;;11.70;6.00;;;;;;;23.13;58.89;100607.49;130397;1260;106527;-79
2023/09/28 14:25:56;;;;;;;7.50;5.50;;;;;;;23.11;58.81;100606.77;130571;1260;107384;-78
2023/09/28 14:29:03;;;;;;;8.60;5.70;;;;;;;23.06;58.81;100602.98;130457;1263;107541;-79
2023/09/28 14:32:09;;;;;;;11.60;5.90;;;;;;;22.99;58.43;100606.50;130234;1267;106569;-77
2023/09/28 14:35:15;;;;;;;8.50;5.50;;;;;;;22.93;58.21;100600.66;130465;1262;106617;-80
2023/09/28 14:38:20;;;;;;;7.00;5.30;;;;;;;22.90;58.35;100601.54;131113;1260;107515;-79
2023/09/28 14:41:27;;;;;;;11.20;5.60;;;;;;;22.87;58.10;100600.14;131005;1260;107683;-77
2023/09/28 14:44:33;;;;;;;7.20;5.60;;;;;;;22.83;58.05;100598.51;130151;1265;106989;-79
2023/09/28 14:47:38;;;;;;;8.70;6.10;;;;;;;22.79;58.25;100599.48;130414;1264;108476;-78
2023/09/28 14:50:45;;;;;;;6.50;5.70;;;;;;;22.74;57.96;100604.50;130194;1263;105802;-78
2023/09/28 14:53:51;;;;;;;9.50;5.50;;;;;;;22.69;57.90;100604.55;130177;1260;107606;-79
2023/09/28 14:56:56;;;;;;;10.00;5.50;;;;;;;22.64;57.93;100599.55;130169;1261;108542;-78
2023/09/28 15:00:06;;;;;;;9.10;5.40;;;;;;;22.57;57.60;100599.40;130118;1261;107678;-78
2023/09/28 15:03:12;;;;;;;8.90;5.70;;;;;;;22.52;57.78;100598.53;130138;1260;106603;-76
2023/09/28 15:06:18;;;;;;;7.30;5.70;;;;;;;22.46;57.74;100595.77;130115;1264;106881;-76
2023/09/28 15:09:25;;;;;;;7.80;6.40;;;;;;;22.41;57.65;100599.20;130139;1260;107672;-77
2023/09/28 15:12:30;;;;;;;10.10;6.40;;;;;;;22.34;57.78;100597.73;130536;1257;107669;-78
2023/09/28 15:15:36;;;;;;;9.50;5.80;;;;;;;22.27;57.84;100592.92;130427;1257;108134;-79
2023/09/28 15:18:42;;;;;;;11.10;6.20;;;;;;;22.19;57.91;100591.17;130404;1262;106487;-76
2023/09/28 15:21:47;;;;;;;8.50;6.10;;;;;;;22.11;57.95;100589.89;131027;1254;107345;-78
2023/09/28 15:24:54;;;;;;;10.20;6.90;;;;;;;22.05;58.01;100594.84;130907;1254;107707;-78
2023/09/28 15:27:59;;;;;;;9.30;6.90;;;;;;;21.97;58.20;100600.61;130922;1254;106355;-78
2023/09/28 15:31:05;;;;;;;10.20;6.90;;;;;;;21.89;58.41;100601.13;130921;1257;107404;-78
2023/09/28 15:34:11;;;;;;;10.00;7.00;;;;;;;21.81;58.40;100600.61;131286;1254;107688;-77
2023/09/28 15:37:18;;;;;;;8.80;6.60;;;;;;;21.72;58.83;100597.52;131130;1258;107725;-77
2023/09/28 15:40:24;;;;;;;9.60;6.40;;;;;;;21.63;59.04;100596.45;131343;1252;108684;-77
2023/09/28 15:43:33;;;;;;;8.30;6.10;;;;;;;21.53;59.42;100598.55;131285;1252;108214;-79
2023/09/28 15:46:39;;;;;;;7.50;6.30;;;;;;;21.42;59.83;100595.33;132528;1252;107810;-78
2023/09/28 15:49:44;;;;;;;9.40;6.20;;;;;;;21.32;60.28;100598.35;132183;1252;107834;-79
2023/09/28 15:52:50;;;;;;;11.90;6.60;;;;;;;21.21;60.42;100598.86;133926;1252;109132;-76
2023/09/28 15:55:55;;;;;;;12.80;6.80;;;;;;;21.09;60.83;100595.95;132494;1251;106877;-76
2023/09/28 15:59:01;;;;;;;11.40;6.50;;;;;;;20.98;61.03;100598.54;131918;1252;107711;-78